Time;durP1;ratioP1;P1;durP2;ratioP2;P2;SDS_P1;SDS_P2;PMS_P1;PMS_P2;Temp;Humidity;BMP_temperature;BMP_pressure;BME280_temperature;BME280_humidity;BME280_pressure;Samples;Min_cycle;Max_cycle;Signal;HPM_P1;HPM_P2
2024/04/12 00:01:15;;;;;;;1.70;1.35;;;13.90;90.30;;;;;;4993549;28;20069;-77
2024/04/12 00:03:41;;;;;;;1.90;1.40;;;13.90;90.30;;;;;;4976918;28;20054;-78
2024/04/12 00:06:15;;;;;;;2.20;1.55;;;14.00;90.40;;;;;;4993988;28;20030;-79
2024/04/12 00:08:46;;;;;;;2.38;1.80;;;13.90;90.40;;;;;;4994751;28;20033;-77
2024/04/12 00:11:16;;;;;;;2.10;1.30;;;13.90;90.40;;;;;;4974569;28;20039;-77
2024/04/12 00:13:44;;;;;;;2.97;1.52;;;13.90;90.30;;;;;;4976065;28;20082;-77
2024/04/12 00:16:10;;;;;;;2.33;1.63;;;13.90;90.40;;;;;;4994387;28;20465;-77
2024/04/12 00:18:37;;;;;;;2.50;1.73;;;13.90;90.40;;;;;;4976636;28;20041;-77
2024/04/12 00:21:05;;;;;;;2.45;1.50;;;13.90;90.40;;;;;;4976071;28;20472;-78
2024/04/12 00:23:32;;;;;;;3.13;1.55;;;13.90;90.30;;;;;;4977256;28;20038;-77
2024/04/12 00:26:00;;;;;;;2.33;1.60;;;14.00;90.40;;;;;;4994881;28;20034;-77
2024/04/12 00:28:30;;;;;;;2.70;1.60;;;13.90;90.30;;;;;;4994697;28;20043;-77
2024/04/12 00:31:01;;;;;;;2.65;1.80;;;13.90;90.30;;;;;;4975032;28;20031;-78
2024/04/12 00:33:31;;;;;;;2.00;1.43;;;13.90;90.40;;;;;;4975209;28;20035;-78
2024/04/12 00:36:07;;;;;;;2.28;1.60;;;14.00;90.40;;;;;;4992693;28;20279;-78
2024/04/12 00:38:35;;;;;;;3.00;1.70;;;13.90;90.30;;;;;;4977217;28;20042;-78
2024/04/12 00:41:11;;;;;;;2.85;1.60;;;13.90;90.40;;;;;;4975499;28;20440;-78
2024/04/12 00:43:44;;;;;;;1.88;1.35;;;13.90;90.40;;;;;;4977353;28;20054;-77
2024/04/12 00:46:23;;;;;;;3.58;2.00;;;13.90;90.40;;;;;;4993629;28;20535;-77
2024/04/12 00:48:51;;;;;;;1.95;1.58;;;13.90;90.40;;;;;;4977348;28;20038;-78
2024/04/12 00:51:19;;;;;;;2.28;1.50;;;13.90;90.40;;;;;;4973571;28;20039;-78
2024/04/12 00:53:56;;;;;;;2.60;1.70;;;13.90;90.40;;;;;;4989299;28;20050;-78
2024/04/12 00:56:27;;;;;;;2.60;1.70;;;13.90;90.40;;;;;;4972911;28;20400;-78
2024/04/12 00:58:55;;;;;;;2.22;1.60;;;13.90;90.40;;;;;;4943937;28;20493;-79
2024/04/12 01:01:23;;;;;;;2.03;1.50;;;13.90;90.40;;;;;;4974716;28;20482;-78
2024/04/12 01:03:53;;;;;;;1.50;1.05;;;13.90;90.40;;;;;;4974187;28;20512;-78
2024/04/12 01:06:25;;;;;;;2.22;1.50;;;13.90;90.40;;;;;;4976358;28;20121;-78
2024/04/12 01:08:54;;;;;;;1.83;1.45;;;13.90;90.40;;;;;;4993542;28;20046;-78
2024/04/12 01:11:21;;;;;;;2.08;1.55;;;13.90;90.40;;;;;;4972822;28;20451;-79
2024/04/12 01:13:48;;;;;;;2.15;1.50;;;13.90;90.40;;;;;;4972553;28;20039;-78
2024/04/12 01:16:15;;;;;;;2.65;1.85;;;13.80;90.40;;;;;;4972247;28;20038;-77
2024/04/12 01:18:42;;;;;;;3.35;2.08;;;13.90;90.40;;;;;;4972026;28;20488;-78
2024/04/12 01:21:11;;;;;;;4.40;2.13;;;13.90;90.50;;;;;;4972309;28;20039;-78
2024/04/12 01:23:42;;;;;;;3.38;2.00;;;13.80;90.40;;;;;;4972819;28;20050;-78
2024/04/12 01:26:12;;;;;;;3.85;2.00;;;13.90;90.50;;;;;;4972458;28;20551;-78
2024/04/12 01:28:43;;;;;;;2.15;1.52;;;13.80;90.70;;;;;;4972892;28;20126;-78
2024/04/12 01:31:19;;;;;;;2.78;1.85;;;13.90;90.40;;;;;;4973883;28;20086;-78
2024/04/12 01:33:48;;;;;;;3.63;2.25;;;13.90;90.40;;;;;;4943698;28;20049;-78
2024/04/12 01:36:19;;;;;;;3.40;2.17;;;13.90;90.40;;;;;;4975734;28;20042;-78
2024/04/12 01:38:53;;;;;;;3.33;2.15;;;13.80;90.40;;;;;;4975459;28;20054;-79
2024/04/12 01:41:24;;;;;;;2.85;1.77;;;13.80;90.40;;;;;;4974846;28;20070;-78
2024/04/12 01:43:53;;;;;;;3.10;2.00;;;13.80;90.40;;;;;;4973726;28;20091;-79
2024/04/12 01:46:26;;;;;;;3.42;2.30;;;13.80;90.40;;;;;;4973703;28;20030;-79
2024/04/12 01:48:54;;;;;;;3.35;2.17;;;13.80;90.40;;;;;;4976075;28;20070;-78
2024/04/12 01:51:24;;;;;;;2.92;1.98;;;13.90;90.40;;;;;;4973776;28;20039;-79
2024/04/12 01:53:54;;;;;;;2.27;1.70;;;13.80;90.40;;;;;;4953755;28;20046;-79
2024/04/12 01:56:22;;;;;;;4.10;2.33;;;13.80;90.40;;;;;;4969647;28;20046;-78
2024/04/12 01:58:49;;;;;;;3.50;2.25;;;13.90;90.40;;;;;;4969049;28;20478;-78
2024/04/12 02:01:16;;;;;;;3.92;2.35;;;13.80;90.40;;;;;;4970645;28;20077;-79
2024/04/12 02:03:43;;;;;;;4.20;2.50;;;13.80;90.40;;;;;;4954634;28;20050;-80
2024/04/12 02:06:09;;;;;;;3.72;2.50;;;13.80;90.40;;;;;;4970566;28;20038;-77
2024/04/12 02:08:35;;;;;;;4.07;2.42;;;13.80;90.40;;;;;;4954811;28;20493;-77
2024/04/12 02:11:05;;;;;;;4.50;2.65;;;13.80;90.40;;;;;;4970709;28;20130;-78
2024/04/12 02:13:36;;;;;;;4.78;2.83;;;13.80;90.40;;;;;;4971065;28;20046;-79
2024/04/12 02:16:04;;;;;;;3.97;2.47;;;13.80;90.40;;;;;;4970763;28;20406;-79
2024/04/12 02:18:33;;;;;;;3.42;2.10;;;13.70;90.40;;;;;;4971084;28;20035;-79
2024/04/12 02:21:10;;;;;;;3.85;2.50;;;13.70;90.40;;;;;;4971191;28;20042;-78
2024/04/12 02:23:37;;;;;;;3.28;2.08;;;13.70;90.40;;;;;;4953165;28;20066;-79
2024/04/12 02:26:05;;;;;;;3.90;2.40;;;13.70;90.40;;;;;;4974418;28;20070;-78
2024/04/12 02:28:36;;;;;;;4.18;2.47;;;13.70;90.40;;;;;;4974157;28;20480;-78
2024/04/12 02:31:08;;;;;;;4.03;2.55;;;13.80;90.50;;;;;;4992053;28;20535;-79
2024/04/12 02:33:35;;;;;;;3.90;2.40;;;13.70;90.50;;;;;;4975474;28;20034;-78
2024/04/12 02:36:03;;;;;;;4.40;2.45;;;13.70;90.50;;;;;;4978503;28;20030;-79
2024/04/12 02:38:29;;;;;;;3.42;2.15;;;13.70;90.50;;;;;;4995437;28;20491;-78
2024/04/12 02:40:58;;;;;;;3.60;2.33;;;13.60;90.40;;;;;;4995699;28;20081;-79
2024/04/12 02:43:25;;;;;;;3.10;2.00;;;13.60;90.50;;;;;;4974933;28;20035;-78
2024/04/12 02:45:55;;;;;;;2.92;2.08;;;13.60;90.50;;;;;;4977982;28;20039;-79
2024/04/12 02:48:21;;;;;;;3.88;2.20;;;13.70;90.50;;;;;;4994347;28;20061;-78
2024/04/12 02:50:53;;;;;;;5.20;2.33;;;13.70;90.50;;;;;;4978241;28;20034;-78
2024/04/12 02:53:20;;;;;;;3.03;1.98;;;13.60;90.50;;;;;;4946217;28;20034;-78
2024/04/12 02:55:47;;;;;;;2.92;1.98;;;13.60;90.50;;;;;;4976277;28;20031;-79
2024/04/12 02:58:13;;;;;;;2.97;1.92;;;13.60;90.50;;;;;;4976027;28;20165;-77
2024/04/12 03:00:40;;;;;;;2.92;1.98;;;13.60;90.50;;;;;;4977390;28;20034;-78
2024/04/12 03:03:05;;;;;;;4.00;2.33;;;13.60;90.50;;;;;;4992890;28;20030;-79
2024/04/12 03:05:32;;;;;;;3.08;1.85;;;13.60;90.50;;;;;;4995032;28;20035;-80
2024/04/12 03:08:00;;;;;;;2.38;1.80;;;13.60;90.50;;;;;;4995423;28;20034;-79
2024/04/12 03:10:31;;;;;;;3.13;2.10;;;13.60;90.50;;;;;;4995637;28;20093;-79
2024/04/12 03:12:57;;;;;;;3.20;1.95;;;13.60;90.50;;;;;;4977611;28;20070;-79
2024/04/12 03:15:26;;;;;;;3.05;1.80;;;13.50;90.50;;;;;;4993003;28;20624;-79
2024/04/12 03:17:52;;;;;;;3.42;2.20;;;13.60;90.50;;;;;;4974410;28;20053;-79
2024/04/12 03:20:18;;;;;;;3.55;2.30;;;13.60;90.50;;;;;;4974051;28;20137;-79
2024/04/12 03:22:46;;;;;;;2.50;1.70;;;13.60;90.50;;;;;;4975807;28;20043;-79
2024/04/12 03:25:12;;;;;;;3.22;2.00;;;13.60;90.50;;;;;;4973919;28;20485;-79
2024/04/12 03:27:39;;;;;;;2.50;1.67;;;13.70;90.50;;;;;;4973730;28;20042;-79
2024/04/12 03:32:45;;;;;;;2.37;1.70;;;13.50;90.50;;;;;;4974172;28;20043;-79
2024/04/12 03:35:16;;;;;;;2.58;1.90;;;13.60;90.50;;;;;;4990701;28;20474;-79
2024/04/12 03:38:24;;;;;;;2.50;1.83;;;13.60;90.50;;;;;;4975638;28;20038;-79
2024/04/12 03:40:29;;;;;;;2.80;1.90;;;13.60;90.50;;;;;;4973961;28;20056;-78
2024/04/12 03:43:02;;;;;;;3.30;2.03;;;13.60;90.40;;;;;;4973649;28;20154;-79
2024/04/12 03:45:30;;;;;;;2.42;1.67;;;13.60;90.50;;;;;;4957034;28;20039;-78
2024/04/12 03:47:58;;;;;;;2.92;1.83;;;13.60;90.50;;;;;;4974988;28;20170;-79
2024/04/12 03:50:30;;;;;;;2.97;1.80;;;13.60;90.40;;;;;;4973846;28;20042;-79
2024/04/12 03:53:04;;;;;;;2.58;1.77;;;13.60;90.40;;;;;;4974230;28;20045;-78
2024/04/12 03:55:30;;;;;;;2.25;1.67;;;13.60;90.40;;;;;;4973898;28;20392;-78
2024/04/12 03:57:55;;;;;;;2.50;1.83;;;13.60;90.40;;;;;;4989681;28;20033;-78
2024/04/12 04:00:22;;;;;;;2.80;2.03;;;13.60;90.40;;;;;;4973687;28;20078;-78
2024/04/12 04:02:48;;;;;;;3.13;1.80;;;13.70;90.50;;;;;;4974972;28;20093;-78
2024/04/12 04:05:15;;;;;;;2.85;1.70;;;13.60;90.40;;;;;;4976747;28;20054;-78
2024/04/12 04:07:44;;;;;;;2.65;1.90;;;13.60;90.40;;;;;;4995009;28;20039;-78
2024/04/12 04:10:14;;;;;;;2.38;1.70;;;13.60;90.40;;;;;;4975585;28;20053;-78
2024/04/12 04:12:45;;;;;;;2.88;1.83;;;13.60;90.40;;;;;;4994497;28;20496;-78
2024/04/12 04:15:11;;;;;;;2.80;1.90;;;13.60;90.40;;;;;;4977672;28;20582;-78
2024/04/12 04:17:37;;;;;;;1.70;1.40;;;13.50;90.30;;;;;;4975183;28;20056;-79
2024/04/12 04:20:06;;;;;;;2.30;1.70;;;13.60;90.40;;;;;;4976719;28;20038;-79
2024/04/12 04:22:43;;;;;;;2.05;1.60;;;13.60;90.40;;;;;;4977091;28;20077;-78
2024/04/12 04:25:10;;;;;;;2.67;1.70;;;13.60;90.40;;;;;;4994062;28;20049;-78
2024/04/12 04:27:38;;;;;;;2.15;1.42;;;13.60;90.40;;;;;;4976864;28;20081;-77
2024/04/12 04:30:05;;;;;;;2.60;1.75;;;13.60;90.40;;;;;;4976671;28;20069;-79
2024/04/12 04:32:31;;;;;;;2.47;1.60;;;13.60;90.40;;;;;;4975879;28;20034;-79
2024/04/12 04:35:13;;;;;;;3.10;1.88;;;13.60;90.40;;;;;;4975447;28;20038;-77
2024/04/12 04:37:39;;;;;;;3.05;1.98;;;13.60;90.40;;;;;;4978698;28;20038;-77
2024/04/12 04:40:25;;;;;;;3.53;2.10;;;13.60;90.30;;;;;;4992649;28;20491;-79
2024/04/12 04:42:54;;;;;;;2.90;1.70;;;13.60;90.30;;;;;;4976263;28;20038;-78
2024/04/12 04:45:21;;;;;;;2.35;1.67;;;13.70;90.30;;;;;;4988486;28;20408;-79
2024/04/12 04:47:48;;;;;;;2.47;1.67;;;13.60;90.30;;;;;;4990198;28;20129;-78
2024/04/12 04:50:13;;;;;;;3.15;1.95;;;13.60;90.30;;;;;;4989215;28;20097;-78
2024/04/12 04:52:40;;;;;;;2.95;1.90;;;13.60;90.30;;;;;;4973321;28;20051;-78
2024/04/12 04:55:07;;;;;;;2.08;1.60;;;13.60;90.30;;;;;;4973157;28;20552;-78
2024/04/12 04:57:38;;;;;;;3.35;1.85;;;13.60;90.30;;;;;;4972594;28;20121;-79
2024/04/12 05:00:06;;;;;;;;;;;13.60;90.30;;;;;;4976858;28;20051;-79
2024/04/12 05:02:34;;;;;;;1.85;1.42;;;13.70;90.30;;;;;;4972858;28;20004;-78
2024/04/12 05:05:04;;;;;;;3.33;1.90;;;13.70;90.30;;;;;;4975243;28;20500;-78
2024/04/12 05:07:34;;;;;;;2.53;1.52;;;13.60;90.30;;;;;;4972798;28;20120;-79
2024/04/12 05:10:09;;;;;;;1.90;1.52;;;13.70;90.30;;;;;;4976109;28;20465;-79
2024/04/12 05:12:36;;;;;;;2.80;1.77;;;13.70;90.30;;;;;;4972949;28;20069;-79
2024/04/12 05:15:10;;;;;;;2.13;1.63;;;13.60;90.30;;;;;;4993250;28;20097;-78
2024/04/12 05:17:38;;;;;;;2.50;1.70;;;13.70;90.30;;;;;;4974188;28;20057;-79
2024/04/12 05:20:14;;;;;;;2.75;1.77;;;13.70;90.30;;;;;;4975434;28;20149;-79
2024/04/12 05:22:41;;;;;;;2.75;1.75;;;13.70;90.30;;;;;;4988531;28;20126;-78
2024/04/12 05:25:13;;;;;;;2.13;1.58;;;13.70;90.30;;;;;;4975839;28;20046;-79
2024/04/12 05:27:40;;;;;;;2.67;1.63;;;13.80;90.30;;;;;;4976544;28;20034;-79
2024/04/12 05:30:07;;;;;;;1.77;1.50;;;13.80;90.30;;;;;;4972368;28;20031;-79
2024/04/12 05:32:33;;;;;;;2.25;1.60;;;13.80;90.30;;;;;;4989243;28;20088;-78
2024/04/12 05:34:59;;;;;;;2.58;1.55;;;13.80;90.30;;;;;;4975143;28;20086;-79
2024/04/12 05:37:35;;;;;;;2.15;1.52;;;13.80;90.20;;;;;;4972508;28;20126;-79
2024/04/12 05:40:04;;;;;;;2.15;1.50;;;13.80;90.20;;;;;;4972702;28;20118;-79
2024/04/12 05:42:30;;;;;;;1.85;1.40;;;13.90;90.20;;;;;;4988222;28;20039;-79
2024/04/12 05:45:04;;;;;;;2.38;1.55;;;13.90;90.20;;;;;;4972727;28;20047;-78
2024/04/12 05:47:29;;;;;;;2.45;1.50;;;13.90;90.20;;;;;;4988473;28;20066;-78
2024/04/12 05:49:55;;;;;;;2.05;1.58;;;13.90;90.20;;;;;;4972297;28;20461;-79
2024/04/12 05:52:22;;;;;;;2.45;1.67;;;13.90;90.20;;;;;;4973228;28;20060;-78
2024/04/12 05:54:50;;;;;;;2.45;1.42;;;13.90;90.20;;;;;;4972036;28;20109;-79
2024/04/12 05:57:19;;;;;;;3.88;1.60;;;14.00;90.20;;;;;;4971138;28;20061;-79
2024/04/12 05:59:44;;;;;;;2.30;1.60;;;14.00;90.10;;;;;;4973628;28;20427;-78
2024/04/12 06:02:14;;;;;;;1.80;1.35;;;14.10;90.10;;;;;;4971220;28;20047;-79
2024/04/12 06:04:41;;;;;;;2.53;1.65;;;14.20;90.10;;;;;;4972308;28;20105;-79
2024/04/12 06:07:11;;;;;;;2.60;1.67;;;14.10;90.00;;;;;;4971801;28;20069;-78
2024/04/12 06:09:38;;;;;;;2.38;1.50;;;14.20;90.20;;;;;;4987169;28;20043;-78
2024/04/12 06:12:06;;;;;;;2.42;1.52;;;14.20;90.00;;;;;;4975978;28;20034;-78
2024/04/12 06:14:33;;;;;;;2.72;1.77;;;14.20;90.00;;;;;;4976408;28;20046;-80
2024/04/12 06:17:06;;;;;;;2.75;1.67;;;14.30;90.30;;;;;;4980373;28;20062;-80
2024/04/12 06:19:41;;;;;;;2.75;1.80;;;14.20;90.00;;;;;;5181536;22;20063;-81
2024/04/12 06:22:13;;;;;;;2.28;1.60;;;14.30;90.00;;;;;;5611403;22;20029;-79
2024/04/12 06:24:49;;;;;;;2.83;1.77;;;14.30;90.00;;;;;;5075563;28;20056;-79
2024/04/12 06:27:16;;;;;;;3.05;1.60;;;14.30;89.90;;;;;;5274568;23;20072;-78
2024/04/12 06:32:33;;;;;;;2.42;1.50;;;14.40;90.00;;;;;;5013618;28;20054;-78
2024/04/12 06:35:20;;;;;;;2.90;1.77;;;14.40;89.90;;;;;;5080191;23;20045;31
2024/04/12 06:37:47;;;;;;;3.35;1.85;;;14.50;90.00;;;;;;4973938;28;20055;-76
2024/04/12 06:40:15;;;;;;;2.47;1.70;;;14.50;89.90;;;;;;4956692;29;20059;-77
2024/04/12 06:42:42;;;;;;;2.63;1.83;;;14.50;89.90;;;;;;4959107;29;20047;-79
2024/04/12 06:45:15;;;;;;;3.95;2.17;;;14.50;89.90;;;;;;4899278;29;20053;-75
2024/04/12 06:47:42;;;;;;;3.72;2.05;;;14.50;89.90;;;;;;4899032;29;20033;-75
2024/04/12 06:50:09;;;;;;;2.72;1.83;;;14.50;89.90;;;;;;4975460;23;20054;-79
2024/04/12 06:52:42;;;;;;;3.22;1.98;;;14.60;90.00;;;;;;5089003;23;20063;31
2024/04/12 06:55:14;;;;;;;3.03;2.13;;;14.60;89.90;;;;;;4975062;28;20050;-79
2024/04/12 06:57:44;;;;;;;3.17;2.00;;;14.70;89.90;;;;;;4961314;29;20059;-79
2024/04/12 07:00:10;;;;;;;4.25;2.50;;;14.70;89.80;;;;;;4960690;28;20051;-79
2024/04/12 07:02:36;;;;;;;4.50;2.72;;;14.80;89.70;;;;;;4899638;29;20091;-79
2024/04/12 07:05:05;;;;;;;3.63;2.15;;;14.80;89.60;;;;;;4865489;29;20366;-79
2024/04/12 07:07:32;;;;;;;4.10;2.40;;;14.80;89.60;;;;;;4913008;23;20060;-80
2024/04/12 07:09:59;;;;;;;3.17;1.98;;;14.80;89.60;;;;;;5248987;23;20070;-80
2024/04/12 07:12:31;;;;;;;3.88;2.42;;;14.90;89.60;;;;;;4977492;28;20119;-78
2024/04/12 07:14:57;;;;;;;3.25;2.13;;;14.90;89.60;;;;;;4979479;28;20027;-79
2024/04/12 07:17:25;;;;;;;2.70;1.95;;;15.00;89.50;;;;;;4977597;28;20059;-81
2024/04/12 07:19:57;;;;;;;4.85;2.17;;;15.00;89.40;;;;;;4976076;28;20059;-80
2024/04/12 07:22:26;;;;;;;2.80;1.85;;;15.00;89.40;;;;;;4923285;29;20068;-80
2024/04/12 07:24:54;;;;;;;3.30;2.00;;;15.00;89.50;;;;;;4918150;29;20538;-80
2024/04/12 07:27:22;;;;;;;4.10;2.40;;;15.00;89.60;;;;;;4883394;29;20048;-79
2024/04/12 07:29:50;;;;;;;3.00;1.98;;;15.00;89.60;;;;;;4887049;29;20041;-78
2024/04/12 07:32:16;;;;;;;3.03;1.80;;;15.00;89.60;;;;;;4886081;29;20067;-79
2024/04/12 07:34:51;;;;;;;4.70;1.92;;;15.10;89.60;;;;;;4900568;29;20079;-79
2024/04/12 07:37:31;;;;;;;2.55;1.70;;;15.10;89.60;;;;;;4915853;29;20031;-79
2024/04/12 07:42:36;;;;;;;3.63;1.83;;;15.10;89.60;;;;;;4876945;29;20062;-77
2024/04/12 07:45:06;;;;;;;3.13;2.10;;;15.20;89.60;;;;;;4878523;29;20080;-78
2024/04/12 07:47:35;;;;;;;4.20;2.28;;;15.20;89.60;;;;;;4854995;29;20121;-78
2024/04/12 07:50:08;;;;;;;3.30;1.90;;;15.20;89.40;;;;;;4872231;29;20041;-79
2024/04/12 07:52:35;;;;;;;3.50;2.03;;;15.30;89.40;;;;;;4880259;29;20036;-78
2024/04/12 07:55:01;;;;;;;3.92;2.22;;;15.30;89.30;;;;;;4902275;29;20052;-78
2024/04/12 07:57:29;;;;;;;3.65;2.22;;;15.30;89.20;;;;;;4921503;29;20036;-80
2024/04/12 07:59:55;;;;;;;3.83;2.30;;;15.40;89.20;;;;;;4902284;29;20024;-79
2024/04/12 08:02:21;;;;;;;4.70;2.42;;;15.40;89.20;;;;;;4899924;29;20036;-79
2024/04/12 08:04:47;;;;;;;2.72;1.70;;;15.50;89.20;;;;;;4910444;29;20056;-79
2024/04/12 08:07:13;;;;;;;3.08;2.10;;;15.50;89.10;;;;;;4919236;29;20041;-79
2024/04/12 08:09:44;;;;;;;4.00;2.10;;;15.50;89.00;;;;;;4930529;28;20047;-79
2024/04/12 08:12:17;;;;;;;;;;;15.60;89.10;;;;;;4944416;28;20051;-77
2024/04/12 08:14:51;;;;;;;2.88;1.65;;;15.70;89.00;;;;;;4973251;28;19913;-78
2024/04/12 08:17:23;;;;;;;2.38;1.70;;;15.80;88.90;;;;;;4964986;28;20134;-79
2024/04/12 08:19:55;;;;;;;3.08;1.70;;;15.70;88.80;;;;;;4985249;28;20039;-78
2024/04/12 08:22:25;;;;;;;3.33;1.70;;;15.80;88.70;;;;;;4966804;28;20324;-77
2024/04/12 08:24:51;;;;;;;4.53;1.90;;;15.80;88.60;;;;;;4967462;28;20034;-78
2024/04/12 08:27:20;;;;;;;3.10;1.80;;;15.80;88.50;;;;;;4969184;28;20497;-77
2024/04/12 08:29:48;;;;;;;2.72;1.85;;;15.90;88.60;;;;;;4966743;28;20041;-79
2024/04/12 08:32:19;;;;;;;3.97;2.15;;;15.90;88.60;;;;;;4963368;28;20034;-79
2024/04/12 08:34:45;;;;;;;3.45;1.70;;;15.90;88.70;;;;;;4962104;28;20041;-79
2024/04/12 08:37:13;;;;;;;3.22;1.67;;;15.90;88.70;;;;;;4962059;28;20042;-78
2024/04/12 08:39:43;;;;;;;3.67;2.08;;;15.90;88.80;;;;;;4987767;28;20062;-79
2024/04/12 08:42:14;;;;;;;4.47;2.40;;;16.00;88.80;;;;;;4986217;28;20047;-79
2024/04/12 08:44:40;;;;;;;3.60;2.00;;;15.90;88.70;;;;;;4982107;28;20302;-79
2024/04/12 08:50:04;;;;;;;3.22;1.98;;;16.10;88.70;;;;;;4979620;28;20055;-80
2024/04/12 08:52:43;;;;;;;3.38;2.05;;;16.20;88.50;;;;;;4983020;28;20118;-80
2024/04/12 08:55:13;;;;;;;3.78;2.25;;;16.20;88.30;;;;;;4969654;28;20038;-79
2024/04/12 08:57:42;;;;;;;3.47;2.15;;;16.30;88.40;;;;;;4989237;28;20137;-79
2024/04/12 09:00:15;;;;;;;4.63;2.20;;;16.30;88.20;;;;;;4987761;28;20114;-79
2024/04/12 09:02:48;;;;;;;3.95;2.35;;;16.40;88.20;;;;;;4979748;28;20034;-78
2024/04/12 09:05:22;;;;;;;4.32;2.30;;;16.40;88.10;;;;;;4966323;28;20055;-79
2024/04/12 09:07:50;;;;;;;2.75;1.90;;;16.30;88.00;;;;;;4968486;28;20062;-79
2024/04/12 09:10:17;;;;;;;3.72;2.03;;;16.40;88.10;;;;;;4967483;28;20050;-79
2024/04/12 09:12:46;;;;;;;2.83;1.77;;;16.40;88.10;;;;;;4934248;28;20059;-80
2024/04/12 09:15:32;;;;;;;4.78;2.08;;;16.50;88.10;;;;;;4969460;28;20062;-80
2024/04/12 09:18:00;;;;;;;4.15;2.20;;;16.50;88.10;;;;;;4957487;28;20052;-80
2024/04/12 09:20:31;;;;;;;3.53;1.90;;;16.60;88.00;;;;;;4974255;28;20519;-79
2024/04/12 09:23:13;;;;;;;5.47;2.15;;;16.70;87.80;;;;;;4974740;28;20039;-79
2024/04/12 09:25:44;;;;;;;3.72;1.83;;;16.80;87.60;;;;;;4958642;28;20043;-79
2024/04/12 09:28:20;;;;;;;3.80;2.05;;;16.90;87.40;;;;;;4990853;28;20015;-79
2024/04/12 09:33:28;;;;;;;3.33;2.08;;;17.10;87.10;;;;;;4968643;28;20019;-81
2024/04/12 09:36:04;;;;;;;2.90;1.85;;;17.20;87.00;;;;;;4955875;28;20042;-79
2024/04/12 09:38:32;;;;;;;3.50;1.92;;;17.20;86.70;;;;;;4941554;28;20078;-81
2024/04/12 09:41:27;;;;;;;3.90;1.80;;;17.30;86.80;;;;;;4961559;28;20030;-78
2024/04/12 09:43:47;;;;;;;3.08;1.92;;;17.40;86.60;;;;;;4978432;28;20111;-80
2024/04/12 09:46:22;;;;;;;5.07;2.13;;;17.40;86.40;;;;;;4987711;28;20047;-81
2024/04/12 10:37:44;;;;;;;2.65;1.83;;;18.20;85.50;;;;;;4972526;28;20409;-77
2024/04/12 10:40:11;;;;;;;2.90;1.85;;;18.30;85.50;;;;;;4976716;28;20039;-80
2024/04/12 10:42:37;;;;;;;3.05;2.00;;;18.40;85.50;;;;;;4957972;28;20054;-80
2024/04/12 10:45:07;;;;;;;3.47;2.10;;;18.40;85.30;;;;;;4956981;28;20054;-80
2024/04/12 10:47:37;;;;;;;4.50;2.00;;;18.50;85.10;;;;;;4941354;28;20093;-80
2024/04/12 10:50:04;;;;;;;3.15;1.77;;;18.50;85.00;;;;;;4958226;28;20026;-79
2024/04/12 10:52:31;;;;;;;2.70;1.70;;;18.50;85.50;;;;;;4972974;28;20190;-80
2024/04/12 10:54:59;;;;;;;2.70;1.90;;;18.50;84.90;;;;;;4947801;28;20122;-80
2024/04/12 10:57:27;;;;;;;3.05;1.80;;;18.60;85.00;;;;;;4957152;28;20066;-79
2024/04/12 10:59:54;;;;;;;3.40;2.17;;;18.80;85.10;;;;;;4962620;28;20139;-80
2024/04/12 11:02:21;;;;;;;2.47;1.65;;;18.70;84.80;;;;;;4958603;28;20027;-80
2024/04/12 11:07:25;;;;;;;2.15;1.80;;;18.90;84.60;;;;;;4976260;28;20137;-79
2024/04/12 11:10:22;;;;;;;1.77;1.30;;;19.10;84.40;;;;;;4958943;28;20066;-81
2024/04/12 11:12:40;;;;;;;2.15;1.70;;;19.10;84.10;;;;;;4964804;28;20124;-79
2024/04/12 11:31:16;;;;;;;5.20;2.38;;;19.50;82.90;;;;;;4979575;28;20039;-80
2024/04/12 11:33:53;;;;;;;3.78;1.75;;;19.40;83.00;;;;;;4958786;28;20035;-79
2024/04/12 11:36:20;;;;;;;5.03;2.17;;;19.50;83.10;;;;;;4966885;28;20034;-80
2024/04/12 11:38:47;;;;;;;2.83;1.83;;;19.60;83.00;;;;;;4975200;28;20058;-81
2024/04/12 11:41:15;;;;;;;2.90;1.50;;;19.70;82.70;;;;;;4960085;28;20135;-80
2024/04/12 11:43:45;;;;;;;1.92;1.27;;;19.90;82.20;;;;;;4958296;28;20043;-79
2024/04/12 11:46:14;;;;;;;2.75;1.50;;;20.00;81.90;;;;;;4976611;28;20035;-78
2024/04/12 11:48:42;;;;;;;2.47;1.63;;;19.90;81.60;;;;;;4942641;28;20058;-78
2024/04/12 11:51:09;;;;;;;3.75;1.75;;;19.80;81.70;;;;;;4942214;28;20068;-79
2024/04/12 11:53:37;;;;;;;3.38;1.58;;;19.80;81.70;;;;;;4941779;28;20050;-76
2024/04/12 11:56:04;;;;;;;1.58;1.30;;;19.90;81.60;;;;;;4942226;28;20050;-80
2024/04/12 11:58:30;;;;;;;2.15;1.35;;;19.90;81.50;;;;;;4925662;28;20035;-80
2024/04/12 12:00:58;;;;;;;3.50;1.75;;;20.00;81.40;;;;;;4944212;28;20049;-77
2024/04/12 12:03:25;;;;;;;1.83;1.30;;;20.20;81.30;;;;;;4941942;28;20042;-77
2024/04/12 12:05:53;;;;;;;2.33;1.23;;;20.20;80.90;;;;;;4975143;28;20089;-78
2024/04/12 12:08:31;;;;;;;2.78;1.60;;;20.20;80.70;;;;;;4956510;28;20031;-80
2024/04/12 12:10:58;;;;;;;2.72;1.60;;;20.20;80.60;;;;;;4974687;28;20046;-78
2024/04/12 12:13:24;;;;;;;2.65;1.63;;;20.20;80.70;;;;;;4941325;28;20096;-78
2024/04/12 12:15:51;;;;;;;2.80;1.60;;;20.20;80.70;;;;;;4956945;28;20042;-78
2024/04/12 12:18:18;;;;;;;3.00;1.90;;;20.10;80.60;;;;;;4974828;28;20528;-79
2024/04/12 12:20:46;;;;;;;2.92;1.85;;;20.10;80.60;;;;;;4941022;28;20401;-80
2024/04/12 12:23:13;;;;;;;2.83;1.80;;;20.10;80.70;;;;;;4973027;28;20150;-80
2024/04/12 12:25:39;;;;;;;2.92;1.60;;;20.10;80.50;;;;;;4974279;28;20062;-79
2024/04/12 12:28:05;;;;;;;2.58;1.50;;;20.20;80.50;;;;;;4957121;28;20035;-79
2024/04/12 12:30:33;;;;;;;3.60;1.65;;;20.20;80.30;;;;;;4959145;28;20060;-80
2024/04/12 12:32:59;;;;;;;2.58;1.70;;;20.30;80.20;;;;;;4958212;28;20065;-79
2024/04/12 12:35:25;;;;;;;2.58;1.67;;;20.20;80.30;;;;;;4945144;28;20647;-79
2024/04/12 12:37:52;;;;;;;2.42;1.48;;;20.20;80.30;;;;;;4974407;28;20098;-78
2024/04/12 12:40:20;;;;;;;2.55;1.60;;;20.20;80.40;;;;;;4957099;28;20085;-78
2024/04/12 12:42:47;;;;;;;1.75;1.42;;;20.10;80.50;;;;;;4974886;28;20057;-78
2024/04/12 12:45:15;;;;;;;2.28;1.55;;;20.10;80.60;;;;;;4958393;28;20125;-77
2024/04/12 12:47:42;;;;;;;1.65;1.17;;;20.10;80.50;;;;;;4969991;28;20111;-76
2024/04/12 12:50:18;;;;;;;2.13;1.35;;;20.20;80.60;;;;;;4956372;28;20078;-78
2024/04/12 12:52:49;;;;;;;2.15;1.35;;;20.10;80.40;;;;;;4975180;28;20050;-77
2024/04/12 12:55:18;;;;;;;;;;;20.10;80.30;;;;;;4939049;28;20424;-79
2024/04/12 12:57:44;;;;;;;2.45;1.33;;;20.10;80.40;;;;;;4954562;28;19913;-78
2024/04/12 13:00:18;;;;;;;2.53;1.33;;;20.20;80.30;;;;;;4963427;28;20059;-77
2024/04/12 13:02:50;;;;;;;0.95;0.93;;;20.20;80.20;;;;;;4976250;28;20039;-79
2024/04/12 13:05:17;;;;;;;1.73;1.02;;;20.20;80.10;;;;;;4974991;28;20046;-79
2024/04/12 13:07:48;;;;;;;1.75;1.30;;;20.20;80.10;;;;;;4952599;28;20038;-77
2024/04/12 13:10:19;;;;;;;2.10;1.40;;;20.20;80.00;;;;;;4963385;28;20938;-76
2024/04/12 13:12:50;;;;;;;1.60;1.10;;;20.30;79.80;;;;;;4984887;28;20477;-78
2024/04/12 13:15:21;;;;;;;1.85;1.35;;;20.30;79.80;;;;;;4957143;28;20039;-77
2024/04/12 13:17:49;;;;;;;1.67;1.30;;;20.30;79.70;;;;;;4972713;28;20043;-77
2024/04/12 13:20:19;;;;;;;2.28;1.55;;;20.30;79.60;;;;;;4974576;28;20074;-76
2024/04/12 13:22:44;;;;;;;3.00;1.60;;;20.40;79.50;;;;;;4987843;28;20043;-76
2024/04/12 13:25:13;;;;;;;1.95;1.20;;;20.30;79.40;;;;;;4970954;28;20366;-76
2024/04/12 13:27:40;;;;;;;1.48;1.25;;;20.20;79.40;;;;;;4974114;28;20017;-76
2024/04/12 13:30:14;;;;;;;3.55;1.20;;;20.30;79.50;;;;;;4974419;28;20094;-76
2024/04/12 13:32:41;;;;;;;2.10;1.13;;;20.20;79.50;;;;;;4988181;28;20035;-76
2024/04/12 13:35:06;;;;;;;3.47;1.40;;;20.20;79.60;;;;;;4972921;28;20480;-76
2024/04/12 13:37:33;;;;;;;1.88;1.10;;;20.20;79.50;;;;;;4988416;28;20799;-75
2024/04/12 13:39:59;;;;;;;1.63;1.10;;;20.10;79.50;;;;;;4971963;28;20053;-75
2024/04/12 13:42:25;;;;;;;1.95;1.20;;;20.10;79.50;;;;;;4989854;28;20066;-77
2024/04/12 13:52:49;;;;;;;3.00;1.13;;;20.00;79.60;;;;;;4995448;28;20070;-78
2024/04/12 13:55:15;;;;;;;3.30;1.23;;;20.00;79.50;;;;;;4990690;28;20382;-78
2024/04/12 13:57:43;;;;;;;2.13;1.30;;;20.00;79.50;;;;;;4930915;29;20047;-78
2024/04/12 14:00:10;;;;;;;1.85;1.30;;;20.00;79.40;;;;;;4929764;29;20024;-78
2024/04/12 14:02:37;;;;;;;2.13;1.27;;;20.00;79.40;;;;;;4929763;29;20058;-79
2024/04/12 14:05:03;;;;;;;1.17;0.82;;;20.10;79.40;;;;;;4897471;29;20044;-79
2024/04/12 14:07:33;;;;;;;2.83;1.23;;;20.20;79.40;;;;;;4913906;29;20049;-78
2024/04/12 14:10:04;;;;;;;2.13;1.40;;;20.30;79.10;;;;;;4912899;29;20507;-78
2024/04/12 14:12:30;;;;;;;1.98;1.42;;;20.40;78.80;;;;;;4901955;29;20059;-78
2024/04/12 14:14:56;;;;;;;3.38;1.50;;;20.50;78.60;;;;;;4902942;29;20115;-79
2024/04/12 14:17:22;;;;;;;2.22;1.50;;;20.70;78.60;;;;;;4902569;29;20076;-79
2024/04/12 14:19:50;;;;;;;2.83;1.33;;;20.50;78.40;;;;;;4891387;29;20060;-79
2024/04/12 14:22:15;;;;;;;2.45;1.27;;;20.50;78.50;;;;;;4913266;29;20045;-78
2024/04/12 14:27:23;;;;;;;2.97;1.35;;;20.50;78.60;;;;;;4914878;29;20047;-78
2024/04/12 14:29:52;;;;;;;1.50;1.23;;;20.50;78.70;;;;;;4917636;29;20111;-79